Meteo Giornale » Osservazioni meteo Stati Uniti (USA) » Eveleth
ore: 13:15 - Osservazioni Meteo Eveleth
Lat. 47° 24' N Lon. 92° 30' W Alt. 421 metri s.l.m.
25 °C
Sereno
Temp. 24 Ore
8 °C
27 °C
Ovest/Sud-Ovest
29.6 Km/h
Dew point 13 °C
Umidità 47 %
Visibilità 10 Km
Il sole sorge alle ore 06:29
Il sole tramonta alle ore 19:50
| Data e Ora | Cielo e Fenomeni | T °C | DP °C | Um. % | Pres. hPa | Vis. km | Vento km/h | |
|---|---|---|---|---|---|---|---|---|
| Oggi h: 13:15 | Sereno | 25 | 13 | 47 | 1013 | 10 | O/SO 29.6 | |
| Oggi h: 12:55 | Sereno | 25 | 13 | 47 | 1013 | 10 | O 16.7 | |
| Oggi h: 12:35 | Sereno | 25 | 13 | 47 | 1013 | 10 | O 13 | |
| Oggi h: 12:15 | Sereno | 24 | 13 | 50 | 1013 | 10 | O 16.7 | |
| Oggi h: 11:55 | Sereno | 24 | 14 | 53 | 1013 | 10 | O/SO 22.2 | |
| Oggi h: 11:35 | Sereno | 24 | 13 | 50 | 1013 | 10 | O 20.3 | |
| Oggi h: 11:15 | Sereno | 23 | 14 | 56 | 1014 | 10 | O 20.3 | |
| Oggi h: 10:55 | Sereno | 23 | 14 | 56 | 1014 | 10 | O 18.5 | |
| Oggi h: 10:35 | Sereno | 22 | 14 | 60 | 1014 | 10 | O 14.8 | |
| Oggi h: 10:22 | Sereno | 22 | 14 | 60 | 1014 | 10 | O/SO 20.3 | |
| Oggi h: 10:20 | Sereno | 22 | 15 | 64 | 1014 | 10 | O/SO 22.2 | |
| Oggi h: 09:19 | Sereno | 19 | 15 | 77 | 1013 | 10 | O/SO 13 | |
| Oggi h: 09:01 | Sereno | 18 | 15 | 82 | 1013 | 10 | O/SO 11.1 | |
| Oggi h: 08:44 | Sereno | 17 | 15 | 88 | 1013 | 10 | O/SO 7.4 | |
| Oggi h: 08:15 | Sereno | 15 | 14 | 93 | 1013 | 10 | N 0 | |
| Oggi h: 07:55 | Sereno | 13 | 13 | 100 | 1013 | 10 | N 0 | |
| Oggi h: 07:35 | Sereno | 11 | 11 | 100 | 1013 | 10 | N 0 | |
| Oggi h: 07:15 | Nebbia | 10 | 10 | 100 | 1013 | 2 | N 0 | |
| Oggi h: 06:55 | Foschia | 9 | 9 | 100 | 1013 | 2 | N 0 | |
| Oggi h: 06:35 | Nebbia | 8 | 8 | 100 | 1013 | 2 | N 0 | |
| Oggi h: 06:15 | Foschia | 10 | 10 | 100 | 1013 | 5 | N 0 | |
| Oggi h: 05:55 | Nuvoloso | 10 | 9 | 93 | 1012 | 10 | N 0 | |
| Oggi h: 05:35 | Foschia | 9 | 9 | 100 | 1012 | 8 | N 0 | |
| Oggi h: 05:15 | Sereno | 10 | 10 | 100 | 1012 | 10 | N 0 | |
| Oggi h: 04:55 | Foschia | 10 | 10 | 100 | 1012 | 5 | N 0 | |
| Oggi h: 04:35 | Foschia | 11 | 10 | 93 | 1012 | 5 | N 0 | |
| Oggi h: 04:15 | Nebbia | 9 | 9 | 100 | 1012 | 2 | N 0 | |
| Oggi h: 03:55 | Sereno | 10 | 10 | 100 | 1012 | 10 | N 0 | |
| Oggi h: 03:35 | Sereno | 10 | 10 | 100 | 1012 | 10 | N 0 | |
| Oggi h: 03:15 | Nuvoloso | 11 | 10 | 93 | 1012 | 10 | N 0 | |
| Oggi h: 02:55 | Sereno | 12 | 11 | 93 | 1012 | 10 | N 0 | |
| Oggi h: 02:35 | Sereno | 12 | 12 | 100 | 1012 | 10 | N 0 | |
| Oggi h: 02:15 | Sereno | 12 | 12 | 100 | 1012 | 10 | N 0 | |
| Oggi h: 01:55 | Sereno | 13 | 13 | 100 | 1012 | 10 | N 5.5 | |
| Oggi h: 01:35 | Sereno | 12 | 12 | 100 | 1012 | 10 | N 0 | |
| Oggi h: 01:15 | Sereno | 12 | 12 | 100 | 1012 | 10 | N 0 | |
| Oggi h: 00:55 | Sereno | 13 | 13 | 100 | 1012 | 10 | N 0 | |
| Oggi h: 00:35 | Sereno | 13 | 13 | 100 | 1012 | 11 | N 0 | |
| Oggi h: 00:15 | Sereno | 13 | 13 | 100 | 1012 | 10 | N 0 | |
| Ieri h: 23:55 | Sereno | 14 | 13 | 93 | 1012 | 10 | N 0 | |
| Ieri h: 23:35 | Sereno | 14 | 13 | 93 | 1012 | 10 | N 0 | |
| Ieri h: 23:15 | Sereno | 14 | 14 | 100 | 1012 | 11 | N 0 | |
| Ieri h: 22:55 | Sereno | 14 | 14 | 100 | 1012 | 11 | N 0 | |
| Ieri h: 22:35 | Sereno | 15 | 15 | 100 | 1012 | 10 | N 0 | |
| Ieri h: 22:15 | Sereno | 15 | 15 | 100 | 1012 | 10 | N 0 | |
| Ieri h: 21:55 | Sereno | 15 | 15 | 100 | 1012 | 10 | N 0 | |
| Ieri h: 21:35 | Sereno | 16 | 16 | 100 | 1012 | 10 | N 0 | |
| Ieri h: 21:15 | Sereno | 16 | 16 | 100 | 1012 | 10 | N 0 | |
| Ieri h: 20:55 | Sereno | 17 | 17 | 100 | 1012 | 10 | N 0 | |
| Ieri h: 20:35 | Foschia | 18 | 17 | 93 | 1012 | 6 | N 0 | |
| Ieri h: 20:15 | Sereno | 18 | 18 | 100 | 1012 | 10 | N 0 | |
| Ieri h: 20:02 | Sereno | 18 | 18 | 100 | 1012 | 10 | N 0 | |
| Ieri h: 20:00 | Sereno | 19 | 18 | 93 | 1012 | 10 | N 0 | |
| Ieri h: 19:40 | Sereno | 20 | 18 | 88 | 1011 | 10 | N 0 | |
| Ieri h: 19:20 | Sereno | 22 | 18 | 78 | 1011 | 10 | N 0 | |
| Ieri h: 19:03 | Sereno | 24 | 17 | 64 | 1011 | 10 | N 0 | |
| Ieri h: 18:41 | Sereno | 25 | 17 | 61 | 1011 | 10 | N 5.5 | |
| Ieri h: 18:24 | Sereno | 26 | 16 | 54 | 1011 | 10 | N 5.5 | |
| Ieri h: 18:03 | Sereno | 26 | 15 | 50 | 1011 | 10 | N 5.5 | |
| Ieri h: 17:43 | Sereno | 27 | 14 | 44 | 1011 | 10 | O 7.4 | |
| Ieri h: 17:23 | Sereno | 27 | 14 | 44 | 1011 | 10 | O 9.3 | |
| Ieri h: 17:03 | Sereno | 27 | 15 | 47 | 1011 | 10 | O/SO 11.1 | |
| Ieri h: 16:43 | Sereno | 27 | 15 | 47 | 1011 | 10 | NO 7.4 | |
| Ieri h: 16:06 | Sereno | 27 | 15 | 47 | 1011 | 10 | O/NO 9.3 | |
| Ieri h: 15:45 | Sereno | 27 | 15 | 47 | 1011 | 10 | O 13 | |
| Ieri h: 15:23 | Sereno | 27 | 15 | 47 | 1011 | 10 | O/NO 25.9 | |
| Ieri h: 15:03 | Sereno | 27 | 16 | 50 | 1011 | 10 | O 16.7 | |
| Ieri h: 14:46 | Sereno | 27 | 16 | 50 | 1011 | 10 | O 16.7 | |
| Ieri h: 14:22 | Sereno | 27 | 18 | 57 | 1011 | 10 | O/NO 20.3 | |
| Ieri h: 14:02 | Nuvoloso | 27 | 20 | 65 | 1011 | 10 | O 18.5 | |
| Ieri h: 13:42 | Nuvoloso | 26 | 20 | 69 | 1011 | 10 | O/SO 14.8 | |



